sensor_id;sensor_type;location;lat;lon;timestamp;temperature;humidity
40589;DHT22;26297;49.450;6.640;2023-07-30T00:01:20;19.90;99.90
40589;DHT22;26297;49.450;6.640;2023-07-30T00:04:35;20.00;99.90
40589;DHT22;26297;49.450;6.640;2023-07-30T00:08:18;20.00;99.90
40589;DHT22;26297;49.450;6.640;2023-07-30T00:15:17;20.00;99.90
40589;DHT22;26297;49.450;6.640;2023-07-30T00:18:34;20.00;99.90
40589;DHT22;26297;49.450;6.640;2023-07-30T00:21:40;20.00;99.90
40589;DHT22;26297;49.450;6.640;2023-07-30T00:25:07;20.00;99.90
40589;DHT22;26297;49.450;6.640;2023-07-30T00:28:16;19.90;99.90
40589;DHT22;26297;49.450;6.640;2023-07-30T00:31:28;19.90;99.90
40589;DHT22;26297;49.450;6.640;2023-07-30T00:34:32;19.90;99.90
40589;DHT22;26297;49.450;6.640;2023-07-30T00:37:39;19.90;99.90
40589;DHT22;26297;49.450;6.640;2023-07-30T00:40:55;19.90;99.90
40589;DHT22;26297;49.450;6.640;2023-07-30T00:44:04;19.90;99.90
40589;DHT22;26297;49.450;6.640;2023-07-30T00:47:12;19.90;99.90
40589;DHT22;26297;49.450;6.640;2023-07-30T00:50:19;19.80;99.90
40589;DHT22;26297;49.450;6.640;2023-07-30T00:53:26;19.80;99.90
40589;DHT22;26297;49.450;6.640;2023-07-30T00:56:30;19.80;99.90
40589;DHT22;26297;49.450;6.640;2023-07-30T00:59:34;19.80;99.90
40589;DHT22;26297;49.450;6.640;2023-07-30T01:02:40;19.70;99.90
40589;DHT22;26297;49.450;6.640;2023-07-30T01:05:53;19.80;99.90
40589;DHT22;26297;49.450;6.640;2023-07-30T01:09:01;19.70;99.90
40589;DHT22;26297;49.450;6.640;2023-07-30T01:12:12;19.70;99.90
40589;DHT22;26297;49.450;6.640;2023-07-30T01:15:18;19.70;99.90
40589;DHT22;26297;49.450;6.640;2023-07-30T01:18:25;19.70;99.90
40589;DHT22;26297;49.450;6.640;2023-07-30T01:21:32;19.70;99.90
40589;DHT22;26297;49.450;6.640;2023-07-30T01:24:41;19.70;99.90
40589;DHT22;26297;49.450;6.640;2023-07-30T01:28:01;19.70;99.90
40589;DHT22;26297;49.450;6.640;2023-07-30T01:31:18;19.70;99.90
40589;DHT22;26297;49.450;6.640;2023-07-30T01:34:37;19.70;99.90
40589;DHT22;26297;49.450;6.640;2023-07-30T01:37:54;19.70;99.90
40589;DHT22;26297;49.450;6.640;2023-07-30T01:41:01;19.70;99.90
40589;DHT22;26297;49.450;6.640;2023-07-30T01:44:07;19.70;99.90
40589;DHT22;26297;49.450;6.640;2023-07-30T01:47:16;19.70;99.90
40589;DHT22;26297;49.450;6.640;2023-07-30T01:50:37;19.70;99.90
40589;DHT22;26297;49.450;6.640;2023-07-30T01:53:41;19.70;99.90
40589;DHT22;26297;49.450;6.640;2023-07-30T01:56:47;19.60;99.90
40589;DHT22;26297;49.450;6.640;2023-07-30T01:59:53;19.70;99.90
40589;DHT22;26297;49.450;6.640;2023-07-30T02:03:06;19.60;99.90
40589;DHT22;26297;49.450;6.640;2023-07-30T02:06:15;19.60;99.90
40589;DHT22;26297;49.450;6.640;2023-07-30T02:09:29;19.60;99.90
40589;DHT22;26297;49.450;6.640;2023-07-30T02:12:35;19.60;99.90
40589;DHT22;26297;49.450;6.640;2023-07-30T02:15:47;19.60;99.90
40589;DHT22;26297;49.450;6.640;2023-07-30T02:18:50;19.60;99.90
40589;DHT22;26297;49.450;6.640;2023-07-30T02:21:54;19.60;99.90
40589;DHT22;26297;49.450;6.640;2023-07-30T02:25:05;19.70;99.90
40589;DHT22;26297;49.450;6.640;2023-07-30T02:28:19;19.70;99.90
40589;DHT22;26297;49.450;6.640;2023-07-30T02:31:34;19.70;99.90
40589;DHT22;26297;49.450;6.640;2023-07-30T02:34:42;19.70;99.90
40589;DHT22;26297;49.450;6.640;2023-07-30T02:37:50;19.70;99.90
40589;DHT22;26297;49.450;6.640;2023-07-30T02:40:59;19.70;99.90
40589;DHT22;26297;49.450;6.640;2023-07-30T02:44:15;19.70;99.90
40589;DHT22;26297;49.450;6.640;2023-07-30T02:47:22;19.60;99.90
40589;DHT22;26297;49.450;6.640;2023-07-30T02:50:33;19.60;99.90
40589;DHT22;26297;49.450;6.640;2023-07-30T02:54:03;19.60;99.90
40589;DHT22;26297;49.450;6.640;2023-07-30T02:57:13;19.60;99.90
40589;DHT22;26297;49.450;6.640;2023-07-30T03:00:17;19.60;99.90
40589;DHT22;26297;49.450;6.640;2023-07-30T03:03:25;19.60;99.90
40589;DHT22;26297;49.450;6.640;2023-07-30T03:06:30;19.60;99.90
40589;DHT22;26297;49.450;6.640;2023-07-30T03:09:41;19.60;99.90
40589;DHT22;26297;49.450;6.640;2023-07-30T03:12:47;19.60;99.90
40589;DHT22;26297;49.450;6.640;2023-07-30T03:15:53;19.60;99.90
40589;DHT22;26297;49.450;6.640;2023-07-30T03:18:59;19.60;99.90
40589;DHT22;26297;49.450;6.640;2023-07-30T03:22:08;19.50;99.90
40589;DHT22;26297;49.450;6.640;2023-07-30T03:25:25;19.60;99.90
40589;DHT22;26297;49.450;6.640;2023-07-30T03:28:56;19.60;99.90
40589;DHT22;26297;49.450;6.640;2023-07-30T03:32:04;19.60;99.90
40589;DHT22;26297;49.450;6.640;2023-07-30T03:35:11;19.50;99.90
40589;DHT22;26297;49.450;6.640;2023-07-30T03:38:41;19.50;99.90
40589;DHT22;26297;49.450;6.640;2023-07-30T03:42:01;19.50;99.90
40589;DHT22;26297;49.450;6.640;2023-07-30T03:45:07;19.50;99.90
40589;DHT22;26297;49.450;6.640;2023-07-30T03:48:16;19.40;99.90
40589;DHT22;26297;49.450;6.640;2023-07-30T03:51:23;19.50;99.90
40589;DHT22;26297;49.450;6.640;2023-07-30T03:54:30;19.40;99.90
40589;DHT22;26297;49.450;6.640;2023-07-30T03:57:36;19.40;99.90
40589;DHT22;26297;49.450;6.640;2023-07-30T04:00:53;19.40;99.90
40589;DHT22;26297;49.450;6.640;2023-07-30T04:04:03;19.40;99.90
40589;DHT22;26297;49.450;6.640;2023-07-30T04:07:10;19.40;99.90
40589;DHT22;26297;49.450;6.640;2023-07-30T04:10:21;19.40;99.90
40589;DHT22;26297;49.450;6.640;2023-07-30T04:17:51;19.40;99.90
40589;DHT22;26297;49.450;6.640;2023-07-30T04:21:23;19.40;99.90
40589;DHT22;26297;49.450;6.640;2023-07-30T04:48:44;19.40;99.90
40589;DHT22;26297;49.450;6.640;2023-07-30T04:52:00;19.50;99.90
40589;DHT22;26297;49.450;6.640;2023-07-30T04:55:08;19.40;99.90
40589;DHT22;26297;49.450;6.640;2023-07-30T04:58:11;19.50;99.90
40589;DHT22;26297;49.450;6.640;2023-07-30T05:01:15;19.50;99.90
40589;DHT22;26297;49.450;6.640;2023-07-30T05:04:27;19.50;99.90
40589;DHT22;26297;49.450;6.640;2023-07-30T05:07:35;19.50;99.90
40589;DHT22;26297;49.450;6.640;2023-07-30T05:10:49;19.60;99.90
40589;DHT22;26297;49.450;6.640;2023-07-30T06:00:08;19.90;99.90
40589;DHT22;26297;49.450;6.640;2023-07-30T07:02:52;19.60;99.90
40589;DHT22;26297;49.450;6.640;2023-07-30T07:06:08;19.50;99.90
40589;DHT22;26297;49.450;6.640;2023-07-30T07:57:46;19.20;99.90
40589;DHT22;26297;49.450;6.640;2023-07-30T08:00:48;19.20;99.90
40589;DHT22;26297;49.450;6.640;2023-07-30T08:03:52;19.30;99.90
40589;DHT22;26297;49.450;6.640;2023-07-30T08:06:55;19.30;99.90
40589;DHT22;26297;49.450;6.640;2023-07-30T08:10:02;19.30;99.90
40589;DHT22;26297;49.450;6.640;2023-07-30T08:13:06;19.30;99.90
40589;DHT22;26297;49.450;6.640;2023-07-30T08:16:09;19.30;99.90
40589;DHT22;26297;49.450;6.640;2023-07-30T08:19:13;19.30;99.90
40589;DHT22;26297;49.450;6.640;2023-07-30T08:22:16;19.20;99.90
40589;DHT22;26297;49.450;6.640;2023-07-30T08:25:20;19.20;99.90
40589;DHT22;26297;49.450;6.640;2023-07-30T08:28:23;19.20;99.90
40589;DHT22;26297;49.450;6.640;2023-07-30T08:31:26;19.20;99.90
40589;DHT22;26297;49.450;6.640;2023-07-30T08:34:29;19.20;99.90
40589;DHT22;26297;49.450;6.640;2023-07-30T08:37:36;19.30;99.90
40589;DHT22;26297;49.450;6.640;2023-07-30T08:40:39;19.20;99.90
40589;DHT22;26297;49.450;6.640;2023-07-30T08:43:44;19.30;99.90
40589;DHT22;26297;49.450;6.640;2023-07-30T08:46:51;19.20;99.90
40589;DHT22;26297;49.450;6.640;2023-07-30T08:49:55;19.20;99.90
40589;DHT22;26297;49.450;6.640;2023-07-30T08:53:00;19.20;99.90
40589;DHT22;26297;49.450;6.640;2023-07-30T08:56:05;19.20;99.90
40589;DHT22;26297;49.450;6.640;2023-07-30T08:59:09;19.20;99.90
40589;DHT22;26297;49.450;6.640;2023-07-30T09:02:39;19.20;99.90
40589;DHT22;26297;49.450;6.640;2023-07-30T09:05:44;19.10;99.90
40589;DHT22;26297;49.450;6.640;2023-07-30T09:08:48;19.10;99.90
40589;DHT22;26297;49.450;6.640;2023-07-30T09:11:52;19.10;99.90
40589;DHT22;26297;49.450;6.640;2023-07-30T09:15:05;19.10;99.90
40589;DHT22;26297;49.450;6.640;2023-07-30T09:18:09;19.20;99.90
40589;DHT22;26297;49.450;6.640;2023-07-30T09:21:13;19.20;99.90
40589;DHT22;26297;49.450;6.640;2023-07-30T09:24:21;19.20;99.90
40589;DHT22;26297;49.450;6.640;2023-07-30T09:27:25;19.30;99.90
40589;DHT22;26297;49.450;6.640;2023-07-30T09:30:29;19.30;99.90
40589;DHT22;26297;49.450;6.640;2023-07-30T09:33:34;19.20;99.90
40589;DHT22;26297;49.450;6.640;2023-07-30T09:36:38;19.10;99.90
40589;DHT22;26297;49.450;6.640;2023-07-30T09:39:41;19.20;99.90
40589;DHT22;26297;49.450;6.640;2023-07-30T09:42:46;19.20;99.90
40589;DHT22;26297;49.450;6.640;2023-07-30T09:45:51;19.20;99.90
40589;DHT22;26297;49.450;6.640;2023-07-30T09:48:55;19.20;99.90
40589;DHT22;26297;49.450;6.640;2023-07-30T09:51:58;19.20;99.90
40589;DHT22;26297;49.450;6.640;2023-07-30T09:55:06;19.20;99.90
40589;DHT22;26297;49.450;6.640;2023-07-30T09:58:10;19.20;99.90
40589;DHT22;26297;49.450;6.640;2023-07-30T10:01:15;19.20;99.90
40589;DHT22;26297;49.450;6.640;2023-07-30T10:04:23;19.30;99.90
40589;DHT22;26297;49.450;6.640;2023-07-30T10:07:28;19.30;99.90
40589;DHT22;26297;49.450;6.640;2023-07-30T10:10:35;19.30;99.90
40589;DHT22;26297;49.450;6.640;2023-07-30T10:18:01;19.30;99.90
40589;DHT22;26297;49.450;6.640;2023-07-30T10:21:41;19.30;99.90
40589;DHT22;26297;49.450;6.640;2023-07-30T10:29:32;19.40;99.90
40589;DHT22;26297;49.450;6.640;2023-07-30T10:37:06;19.50;99.90
40589;DHT22;26297;49.450;6.640;2023-07-30T10:40:18;19.50;99.90
40589;DHT22;26297;49.450;6.640;2023-07-30T10:43:56;19.50;99.90
40589;DHT22;26297;49.450;6.640;2023-07-30T10:47:24;19.50;99.90
40589;DHT22;26297;49.450;6.640;2023-07-30T10:50:47;19.50;99.90
40589;DHT22;26297;49.450;6.640;2023-07-30T10:54:25;19.40;99.90
40589;DHT22;26297;49.450;6.640;2023-07-30T10:58:15;19.40;99.90
40589;DHT22;26297;49.450;6.640;2023-07-30T11:01:44;19.50;99.90
40589;DHT22;26297;49.450;6.640;2023-07-30T11:09:17;19.50;99.90
40589;DHT22;26297;49.450;6.640;2023-07-30T11:12:23;19.60;99.90
40589;DHT22;26297;49.450;6.640;2023-07-30T11:15:53;19.50;99.90
40589;DHT22;26297;49.450;6.640;2023-07-30T11:19:24;19.60;99.90
40589;DHT22;26297;49.450;6.640;2023-07-30T11:22:32;19.60;99.90
40589;DHT22;26297;49.450;6.640;2023-07-30T11:29:57;19.60;99.90
40589;DHT22;26297;49.450;6.640;2023-07-30T11:33:17;19.60;99.90
40589;DHT22;26297;49.450;6.640;2023-07-30T11:36:40;19.60;99.90
40589;DHT22;26297;49.450;6.640;2023-07-30T11:40:10;19.60;99.90
40589;DHT22;26297;49.450;6.640;2023-07-30T11:43:15;19.70;99.90
40589;DHT22;26297;49.450;6.640;2023-07-30T11:46:26;19.70;99.90
40589;DHT22;26297;49.450;6.640;2023-07-30T12:31:11;19.90;99.90
40589;DHT22;26297;49.450;6.640;2023-07-30T12:39:04;20.00;99.90
40589;DHT22;26297;49.450;6.640;2023-07-30T12:42:11;20.00;99.90
40589;DHT22;26297;49.450;6.640;2023-07-30T12:54:21;20.10;99.90
40589;DHT22;26297;49.450;6.640;2023-07-30T13:01:43;20.00;99.90
40589;DHT22;26297;49.450;6.640;2023-07-30T13:09:23;20.00;99.90
40589;DHT22;26297;49.450;6.640;2023-07-30T13:12:53;20.00;99.90
40589;DHT22;26297;49.450;6.640;2023-07-30T13:16:06;20.00;99.90
40589;DHT22;26297;49.450;6.640;2023-07-30T13:23:39;20.00;99.90
40589;DHT22;26297;49.450;6.640;2023-07-30T13:26:46;20.00;99.90
40589;DHT22;26297;49.450;6.640;2023-07-30T13:30:26;20.00;99.90
40589;DHT22;26297;49.450;6.640;2023-07-30T13:33:46;20.10;99.90
40589;DHT22;26297;49.450;6.640;2023-07-30T13:37:03;20.20;99.90
40589;DHT22;26297;49.450;6.640;2023-07-30T13:40:25;20.30;99.90
40589;DHT22;26297;49.450;6.640;2023-07-30T13:43:33;20.30;99.90
40589;DHT22;26297;49.450;6.640;2023-07-30T13:46:49;20.40;99.90
40589;DHT22;26297;49.450;6.640;2023-07-30T13:50:16;20.50;99.90
40589;DHT22;26297;49.450;6.640;2023-07-30T13:53:25;20.40;99.90
40589;DHT22;26297;49.450;6.640;2023-07-30T13:56:33;20.40;99.90
40589;DHT22;26297;49.450;6.640;2023-07-30T13:59:42;20.60;99.90
40589;DHT22;26297;49.450;6.640;2023-07-30T14:02:49;20.60;99.90
40589;DHT22;26297;49.450;6.640;2023-07-30T14:05:54;20.70;99.90
40589;DHT22;26297;49.450;6.640;2023-07-30T14:09:15;20.70;99.90
40589;DHT22;26297;49.450;6.640;2023-07-30T14:25:16;20.60;99.90
40589;DHT22;26297;49.450;6.640;2023-07-30T14:28:33;20.70;99.80
40589;DHT22;26297;49.450;6.640;2023-07-30T14:40:36;20.70;99.30
40589;DHT22;26297;49.450;6.640;2023-07-30T15:18:10;21.00;96.80
40589;DHT22;26297;49.450;6.640;2023-07-30T15:34:56;20.80;99.90
40589;DHT22;26297;49.450;6.640;2023-07-30T15:47:30;20.70;98.40
40589;DHT22;26297;49.450;6.640;2023-07-30T15:59:00;20.70;99.40
40589;DHT22;26297;49.450;6.640;2023-07-30T16:05:49;20.70;99.90
40589;DHT22;26297;49.450;6.640;2023-07-30T16:08:56;20.70;99.90
40589;DHT22;26297;49.450;6.640;2023-07-30T16:12:13;20.80;99.90
40589;DHT22;26297;49.450;6.640;2023-07-30T16:15:53;20.80;99.90
40589;DHT22;26297;49.450;6.640;2023-07-30T16:19:23;20.80;99.90
40589;DHT22;26297;49.450;6.640;2023-07-30T16:22:57;20.80;99.90
40589;DHT22;26297;49.450;6.640;2023-07-30T16:26:05;20.80;99.80
40589;DHT22;26297;49.450;6.640;2023-07-30T16:29:20;20.70;98.70
40589;DHT22;26297;49.450;6.640;2023-07-30T16:32:26;20.70;99.90
40589;DHT22;26297;49.450;6.640;2023-07-30T16:39:53;20.70;99.90
40589;DHT22;26297;49.450;6.640;2023-07-30T16:43:00;20.70;99.90
40589;DHT22;26297;49.450;6.640;2023-07-30T16:46:03;20.70;99.90
40589;DHT22;26297;49.450;6.640;2023-07-30T16:49:06;20.70;99.90
40589;DHT22;26297;49.450;6.640;2023-07-30T16:52:11;20.70;99.90
40589;DHT22;26297;49.450;6.640;2023-07-30T16:55:17;20.70;99.90
40589;DHT22;26297;49.450;6.640;2023-07-30T16:58:20;20.60;99.90
40589;DHT22;26297;49.450;6.640;2023-07-30T17:01:27;20.70;99.90
40589;DHT22;26297;49.450;6.640;2023-07-30T17:04:36;20.70;99.90
40589;DHT22;26297;49.450;6.640;2023-07-30T17:07:39;20.60;99.90
40589;DHT22;26297;49.450;6.640;2023-07-30T17:10:43;20.60;99.90
40589;DHT22;26297;49.450;6.640;2023-07-30T17:13:47;20.60;99.90
40589;DHT22;26297;49.450;6.640;2023-07-30T17:16:50;20.70;99.90
40589;DHT22;26297;49.450;6.640;2023-07-30T17:19:53;20.70;99.90
40589;DHT22;26297;49.450;6.640;2023-07-30T17:22:56;20.60;99.90
40589;DHT22;26297;49.450;6.640;2023-07-30T17:26:02;20.60;99.90
40589;DHT22;26297;49.450;6.640;2023-07-30T17:29:06;20.70;99.90
40589;DHT22;26297;49.450;6.640;2023-07-30T17:32:09;20.70;99.90
40589;DHT22;26297;49.450;6.640;2023-07-30T17:35:23;20.70;99.90
40589;DHT22;26297;49.450;6.640;2023-07-30T17:38:27;20.70;99.90
40589;DHT22;26297;49.450;6.640;2023-07-30T17:41:30;20.60;99.90
40589;DHT22;26297;49.450;6.640;2023-07-30T17:44:36;20.70;99.90
40589;DHT22;26297;49.450;6.640;2023-07-30T17:47:40;20.60;99.90
40589;DHT22;26297;49.450;6.640;2023-07-30T17:50:43;20.60;99.90
40589;DHT22;26297;49.450;6.640;2023-07-30T17:53:46;20.60;99.90
40589;DHT22;26297;49.450;6.640;2023-07-30T17:56:50;20.60;99.90
40589;DHT22;26297;49.450;6.640;2023-07-30T17:59:54;20.60;99.90
40589;DHT22;26297;49.450;6.640;2023-07-30T18:03:20;20.60;99.90
40589;DHT22;26297;49.450;6.640;2023-07-30T18:06:30;20.60;99.90
40589;DHT22;26297;49.450;6.640;2023-07-30T18:14:27;20.60;99.90
40589;DHT22;26297;49.450;6.640;2023-07-30T18:17:34;20.60;99.90
40589;DHT22;26297;49.450;6.640;2023-07-30T18:20:37;20.60;99.90
40589;DHT22;26297;49.450;6.640;2023-07-30T18:23:40;20.60;99.90
40589;DHT22;26297;49.450;6.640;2023-07-30T18:26:45;20.60;99.90
40589;DHT22;26297;49.450;6.640;2023-07-30T18:29:49;20.60;99.90
40589;DHT22;26297;49.450;6.640;2023-07-30T18:32:52;20.70;99.90
40589;DHT22;26297;49.450;6.640;2023-07-30T18:35:59;20.60;99.90
40589;DHT22;26297;49.450;6.640;2023-07-30T18:39:03;20.60;99.90
40589;DHT22;26297;49.450;6.640;2023-07-30T18:42:09;20.60;99.90
40589;DHT22;26297;49.450;6.640;2023-07-30T18:45:13;20.60;99.90
40589;DHT22;26297;49.450;6.640;2023-07-30T18:48:16;20.60;99.90
40589;DHT22;26297;49.450;6.640;2023-07-30T18:51:21;20.60;99.90
40589;DHT22;26297;49.450;6.640;2023-07-30T18:54:24;20.60;99.90
40589;DHT22;26297;49.450;6.640;2023-07-30T18:57:27;20.60;99.90
40589;DHT22;26297;49.450;6.640;2023-07-30T19:00:32;20.60;99.90
40589;DHT22;26297;49.450;6.640;2023-07-30T19:03:35;20.60;99.90
40589;DHT22;26297;49.450;6.640;2023-07-30T19:06:40;20.60;99.90
40589;DHT22;26297;49.450;6.640;2023-07-30T19:09:43;20.60;99.90
40589;DHT22;26297;49.450;6.640;2023-07-30T19:12:46;20.60;99.90
40589;DHT22;26297;49.450;6.640;2023-07-30T19:15:49;20.60;99.90
40589;DHT22;26297;49.450;6.640;2023-07-30T19:18:56;20.60;99.90
40589;DHT22;26297;49.450;6.640;2023-07-30T19:22:02;20.60;99.90
40589;DHT22;26297;49.450;6.640;2023-07-30T19:25:06;20.60;99.90
40589;DHT22;26297;49.450;6.640;2023-07-30T19:28:09;20.60;99.90
40589;DHT22;26297;49.450;6.640;2023-07-30T19:31:14;20.60;99.90
40589;DHT22;26297;49.450;6.640;2023-07-30T19:34:21;20.60;99.90
40589;DHT22;26297;49.450;6.640;2023-07-30T19:37:26;20.60;99.90
40589;DHT22;26297;49.450;6.640;2023-07-30T19:40:31;20.60;99.90
40589;DHT22;26297;49.450;6.640;2023-07-30T19:43:37;20.60;99.90
40589;DHT22;26297;49.450;6.640;2023-07-30T19:46:40;20.60;99.90
40589;DHT22;26297;49.450;6.640;2023-07-30T19:49:44;20.60;99.90
40589;DHT22;26297;49.450;6.640;2023-07-30T19:52:47;20.50;99.90
40589;DHT22;26297;49.450;6.640;2023-07-30T19:55:51;20.50;99.90
40589;DHT22;26297;49.450;6.640;2023-07-30T19:58:55;20.50;99.90
40589;DHT22;26297;49.450;6.640;2023-07-30T20:02:17;20.50;99.90
40589;DHT22;26297;49.450;6.640;2023-07-30T20:05:20;20.50;99.90
40589;DHT22;26297;49.450;6.640;2023-07-30T20:08:23;20.50;99.90
40589;DHT22;26297;49.450;6.640;2023-07-30T20:11:29;20.50;99.90
40589;DHT22;26297;49.450;6.640;2023-07-30T20:14:35;20.50;99.90
40589;DHT22;26297;49.450;6.640;2023-07-30T20:17:38;20.50;99.90
40589;DHT22;26297;49.450;6.640;2023-07-30T20:20:41;20.50;99.90
40589;DHT22;26297;49.450;6.640;2023-07-30T20:23:44;20.50;99.90
40589;DHT22;26297;49.450;6.640;2023-07-30T20:26:48;20.50;99.90
40589;DHT22;26297;49.450;6.640;2023-07-30T20:29:54;20.50;99.90
40589;DHT22;26297;49.450;6.640;2023-07-30T20:32:58;20.50;99.90
40589;DHT22;26297;49.450;6.640;2023-07-30T20:36:02;20.50;99.90
40589;DHT22;26297;49.450;6.640;2023-07-30T20:39:06;20.40;99.90
40589;DHT22;26297;49.450;6.640;2023-07-30T20:42:09;20.50;99.90
40589;DHT22;26297;49.450;6.640;2023-07-30T20:45:11;20.40;99.90
40589;DHT22;26297;49.450;6.640;2023-07-30T20:48:14;20.50;99.90
40589;DHT22;26297;49.450;6.640;2023-07-30T20:51:18;20.40;99.90
40589;DHT22;26297;49.450;6.640;2023-07-30T20:54:21;20.40;99.90
40589;DHT22;26297;49.450;6.640;2023-07-30T20:57:24;20.40;99.90
40589;DHT22;26297;49.450;6.640;2023-07-30T21:00:27;20.40;99.90
40589;DHT22;26297;49.450;6.640;2023-07-30T21:03:35;20.40;99.90
40589;DHT22;26297;49.450;6.640;2023-07-30T21:06:44;20.40;99.90
40589;DHT22;26297;49.450;6.640;2023-07-30T21:09:56;20.40;99.90
40589;DHT22;26297;49.450;6.640;2023-07-30T21:13:03;20.40;99.90
40589;DHT22;26297;49.450;6.640;2023-07-30T21:16:12;20.40;99.90
40589;DHT22;26297;49.450;6.640;2023-07-30T21:19:21;20.40;99.90
40589;DHT22;26297;49.450;6.640;2023-07-30T21:22:28;20.40;99.90
40589;DHT22;26297;49.450;6.640;2023-07-30T21:25:32;20.40;99.90
40589;DHT22;26297;49.450;6.640;2023-07-30T21:28:57;20.30;99.90
40589;DHT22;26297;49.450;6.640;2023-07-30T21:32:26;20.30;99.90
40589;DHT22;26297;49.450;6.640;2023-07-30T21:35:30;20.30;99.90
40589;DHT22;26297;49.450;6.640;2023-07-30T22:37:29;20.20;99.90
40589;DHT22;26297;49.450;6.640;2023-07-30T22:40:38;20.20;99.90
40589;DHT22;26297;49.450;6.640;2023-07-30T22:43:50;20.20;99.90
40589;DHT22;26297;49.450;6.640;2023-07-30T22:47:11;20.20;99.90
40589;DHT22;26297;49.450;6.640;2023-07-30T22:50:30;20.20;99.90
40589;DHT22;26297;49.450;6.640;2023-07-30T22:53:51;20.20;99.90
40589;DHT22;26297;49.450;6.640;2023-07-30T22:56:57;20.10;99.90
40589;DHT22;26297;49.450;6.640;2023-07-30T23:00:13;20.20;99.90
40589;DHT22;26297;49.450;6.640;2023-07-30T23:03:28;20.20;99.90
40589;DHT22;26297;49.450;6.640;2023-07-30T23:07:02;20.20;99.90
40589;DHT22;26297;49.450;6.640;2023-07-30T23:10:24;20.10;99.90
40589;DHT22;26297;49.450;6.640;2023-07-30T23:13:39;20.10;99.90
40589;DHT22;26297;49.450;6.640;2023-07-30T23:16:47;20.10;99.90
40589;DHT22;26297;49.450;6.640;2023-07-30T23:19:54;20.20;99.90
40589;DHT22;26297;49.450;6.640;2023-07-30T23:23:18;20.20;99.90
40589;DHT22;26297;49.450;6.640;2023-07-30T23:26:21;20.10;99.90
40589;DHT22;26297;49.450;6.640;2023-07-30T23:29:50;20.10;99.90
40589;DHT22;26297;49.450;6.640;2023-07-30T23:32:56;20.00;99.90
40589;DHT22;26297;49.450;6.640;2023-07-30T23:36:12;20.00;99.90
40589;DHT22;26297;49.450;6.640;2023-07-30T23:39:16;20.10;99.90
40589;DHT22;26297;49.450;6.640;2023-07-30T23:42:42;20.00;99.90
40589;DHT22;26297;49.450;6.640;2023-07-30T23:45:48;20.00;99.90
40589;DHT22;26297;49.450;6.640;2023-07-30T23:49:09;20.00;99.90
40589;DHT22;26297;49.450;6.640;2023-07-30T23:52:21;20.00;99.90
40589;DHT22;26297;49.450;6.640;2023-07-30T23:55:24;20.00;99.90
40589;DHT22;26297;49.450;6.640;2023-07-30T23:58:43;20.00;99.90
